createdAt,value
2023-04-11T00:01:49.836Z,5.64
2023-04-11T00:04:20.798Z,5.72
2023-04-11T00:06:48.736Z,5.81
2023-04-11T00:09:17.174Z,5.85
2023-04-11T00:11:44.429Z,5.82
2023-04-11T00:14:12.733Z,5.74
2023-04-11T00:16:41.518Z,5.74
2023-04-11T00:19:11.954Z,5.69
2023-04-11T00:21:44.254Z,5.62
2023-04-11T00:24:11.630Z,5.59
2023-04-11T00:26:38.838Z,5.48
2023-04-11T00:29:06.059Z,5.35
2023-04-11T00:31:33.648Z,5.30
2023-04-11T00:34:00.912Z,5.42
2023-04-11T00:36:28.212Z,5.44
2023-04-11T00:38:55.808Z,5.42
2023-04-11T00:41:24.516Z,5.49
2023-04-11T00:43:51.700Z,5.32
2023-04-11T00:46:19.243Z,5.30
2023-04-11T00:48:47.085Z,5.38
2023-04-11T00:51:16.100Z,5.42
2023-04-11T00:53:45.831Z,5.43
2023-04-11T00:56:13.273Z,5.37
2023-04-11T00:58:41.866Z,5.31
2023-04-11T01:01:09.614Z,5.22
2023-04-11T01:03:39.421Z,5.15
2023-04-11T01:06:10.316Z,5.03
2023-04-11T01:08:38.330Z,4.97
2023-04-11T01:11:07.273Z,5.00
2023-04-11T01:13:36.790Z,5.11
2023-04-11T01:16:04.240Z,5.13
2023-04-11T01:18:31.546Z,5.16
2023-04-11T01:21:00.509Z,5.30
2023-04-11T01:23:28.371Z,5.30
2023-04-11T01:25:55.778Z,5.26
2023-04-11T01:28:23.044Z,5.22
2023-04-11T01:30:50.497Z,4.97
2023-04-11T01:33:18.143Z,5.12
2023-04-11T01:35:45.529Z,5.29
2023-04-11T01:38:12.829Z,5.37
2023-04-11T01:40:41.552Z,5.39
2023-04-11T01:43:10.021Z,5.39
2023-04-11T01:45:37.723Z,5.35
2023-04-11T01:48:08.613Z,5.28
2023-04-11T01:50:36.192Z,5.19
2023-04-11T01:53:04.112Z,5.15
2023-04-11T01:55:31.381Z,5.21
2023-04-11T01:57:58.722Z,5.23
2023-04-11T02:00:26.256Z,5.17
2023-04-11T02:02:53.510Z,5.26
2023-04-11T02:05:22.185Z,5.13
2023-04-11T02:07:49.393Z,5.13
2023-04-11T02:10:18.719Z,5.05
2023-04-11T02:12:46.032Z,5.13
2023-04-11T02:15:13.355Z,5.07
2023-04-11T02:17:45.513Z,5.20
2023-04-11T02:20:14.197Z,5.23
2023-04-11T02:22:41.963Z,5.20
2023-04-11T02:25:09.693Z,5.33
2023-04-11T02:27:37.017Z,5.23
2023-04-11T02:30:06.214Z,5.05
2023-04-11T02:32:35.861Z,5.08
2023-04-11T02:35:04.880Z,5.12
2023-04-11T02:37:32.304Z,5.14
2023-04-11T02:39:59.560Z,5.02
2023-04-11T02:42:26.750Z,5.06
2023-04-11T02:44:57.187Z,5.03
2023-04-11T02:47:28.283Z,5.03
2023-04-11T02:50:00.002Z,4.98
2023-04-11T02:52:33.825Z,5.07
2023-04-11T02:55:01.446Z,5.04
2023-04-11T02:57:28.632Z,5.15
2023-04-11T02:59:56.810Z,4.97
2023-04-11T03:02:30.817Z,4.92
2023-04-11T03:05:04.162Z,4.96
2023-04-11T03:07:34.595Z,5.02
2023-04-11T03:10:01.817Z,4.99
2023-04-11T03:12:29.097Z,5.08
2023-04-11T03:15:00.685Z,5.05
2023-04-11T03:17:28.387Z,5.13
2023-04-11T03:19:55.774Z,5.08
2023-04-11T03:22:24.724Z,4.84
2023-04-11T03:24:51.989Z,4.96
2023-04-11T03:27:22.345Z,4.90
2023-04-11T03:29:54.037Z,4.98
2023-04-11T03:32:42.599Z,4.84
2023-04-11T03:35:10.256Z,4.76
2023-04-11T03:37:41.110Z,4.75
2023-04-11T03:40:09.947Z,4.68
2023-04-11T03:42:40.756Z,4.60
2023-04-11T03:45:11.376Z,4.72
2023-04-11T03:47:40.518Z,4.57
2023-04-11T03:50:09.151Z,4.63
2023-04-11T03:52:42.788Z,4.66
2023-04-11T03:55:14.552Z,4.48
2023-04-11T03:57:41.903Z,4.43
2023-04-11T04:00:10.910Z,4.51
2023-04-11T04:02:53.347Z,4.54
2023-04-11T04:05:21.215Z,4.64
2023-04-11T04:07:48.993Z,4.70
2023-04-11T04:10:23.691Z,4.82
2023-04-11T04:12:54.058Z,4.79
2023-04-11T04:15:24.771Z,4.77
2023-04-11T04:17:52.458Z,4.84
2023-04-11T04:20:27.467Z,4.87
2023-04-11T04:23:00.314Z,4.83
2023-04-11T04:25:42.400Z,4.96
2023-04-11T04:28:10.806Z,5.48
2023-04-11T04:30:40.063Z,5.87
2023-04-11T04:33:12.414Z,6.12
2023-04-11T04:35:44.712Z,6.53
2023-04-11T04:38:18.031Z,6.59
2023-04-11T04:40:50.515Z,6.71
2023-04-11T04:43:24.122Z,6.87
2023-04-11T04:45:57.375Z,6.96
2023-04-11T04:48:31.130Z,7.07
2023-04-11T04:50:58.360Z,7.28
2023-04-11T04:53:26.106Z,7.66
2023-04-11T04:55:57.544Z,7.89
2023-04-11T04:58:27.942Z,8.08
2023-04-11T05:00:56.167Z,8.05
2023-04-11T05:03:27.661Z,7.94
2023-04-11T05:05:56.836Z,8.06
2023-04-11T05:08:24.704Z,8.27
2023-04-11T05:10:55.052Z,8.37
2023-04-11T05:13:22.599Z,8.82
2023-04-11T05:15:51.193Z,9.20
2023-04-11T05:18:19.142Z,9.64
2023-04-11T05:20:46.604Z,10.27
2023-04-11T05:23:20.030Z,11.00
2023-04-11T05:25:48.222Z,10.89
2023-04-11T05:28:16.307Z,11.07
2023-04-11T05:30:43.520Z,11.13
2023-04-11T05:33:14.604Z,11.88
2023-04-11T05:35:43.521Z,11.66
2023-04-11T05:38:11.074Z,12.14
2023-04-11T05:40:40.075Z,11.90
2023-04-11T05:43:08.417Z,12.00
2023-04-11T05:45:35.745Z,12.07
2023-04-11T05:48:07.953Z,12.34
2023-04-11T05:50:36.355Z,12.23
2023-04-11T05:53:03.877Z,11.77
2023-04-11T05:55:31.805Z,11.64
2023-04-11T05:57:58.967Z,11.90
2023-04-11T06:00:28.623Z,11.84
2023-04-11T06:02:56.033Z,11.83
2023-04-11T06:05:23.998Z,11.77
2023-04-11T06:07:51.902Z,11.63
2023-04-11T06:10:19.165Z,11.97
2023-04-11T06:12:46.335Z,12.46
2023-04-11T06:15:14.023Z,12.36
2023-04-11T06:17:41.312Z,12.16
2023-04-11T06:20:10.460Z,12.61
2023-04-11T06:22:40.428Z,13.23
2023-04-11T06:25:09.098Z,13.72
2023-04-11T06:27:36.717Z,14.31
2023-04-11T06:30:04.404Z,15.36
2023-04-11T06:32:31.670Z,16.29
2023-04-11T06:34:59.008Z,17.25
2023-04-11T06:37:26.247Z,17.77
2023-04-11T06:39:53.610Z,18.70
2023-04-11T06:42:20.975Z,17.82
2023-04-11T06:44:51.816Z,16.78
2023-04-11T06:47:19.216Z,16.44
2023-04-11T06:49:46.548Z,16.16
2023-04-11T06:52:13.880Z,16.11
2023-04-11T06:54:41.060Z,16.23
2023-04-11T06:57:10.302Z,16.29
2023-04-11T06:59:37.931Z,16.15
2023-04-11T07:02:05.406Z,15.75
2023-04-11T07:04:34.103Z,15.55
2023-04-11T07:07:01.503Z,15.16
2023-04-11T07:09:28.861Z,14.69
2023-04-11T07:11:56.696Z,14.16
2023-04-11T07:14:24.009Z,13.99
2023-04-11T07:16:51.415Z,14.01
2023-04-11T07:19:18.775Z,14.05
2023-04-11T07:21:46.030Z,13.75
2023-04-11T07:24:13.522Z,13.56
2023-04-11T07:26:42.305Z,13.31
2023-04-11T07:29:11.573Z,12.83
2023-04-11T07:31:40.952Z,13.01
2023-04-11T07:34:08.264Z,13.01
2023-04-11T07:36:35.780Z,13.16
2023-04-11T07:39:04.580Z,13.23
2023-04-11T07:41:31.727Z,13.08
2023-04-11T07:43:59.089Z,13.18
2023-04-11T07:46:26.325Z,13.40
2023-04-11T07:48:53.716Z,13.91
2023-04-11T07:51:21.046Z,14.05
2023-04-11T07:53:48.312Z,14.25
2023-04-11T07:56:15.940Z,14.62
2023-04-11T07:58:43.379Z,14.73
2023-04-11T08:01:25.745Z,15.55
2023-04-11T08:03:56.982Z,16.25
2023-04-11T08:06:24.766Z,16.46
2023-04-11T08:08:52.165Z,16.30
2023-04-11T08:11:19.484Z,16.34
2023-04-11T08:13:46.724Z,16.34
2023-04-11T08:16:16.117Z,16.53
2023-04-11T08:18:45.689Z,16.61
2023-04-11T08:21:13.142Z,16.19
2023-04-11T08:23:42.416Z,16.38
2023-04-11T08:26:12.033Z,16.73
2023-04-11T08:28:42.422Z,16.49
2023-04-11T08:31:13.169Z,16.25
2023-04-11T08:33:41.388Z,16.06
2023-04-11T08:36:10.547Z,15.93
2023-04-11T08:38:39.671Z,16.32
2023-04-11T08:41:07.651Z,16.49
2023-04-11T08:43:35.773Z,16.30
2023-04-11T08:46:04.280Z,17.21
2023-04-11T08:48:32.466Z,17.53
2023-04-11T08:50:59.953Z,17.25
2023-04-11T08:53:29.290Z,17.38
2023-04-11T08:55:56.614Z,17.60
2023-04-11T08:58:23.773Z,17.50
2023-04-11T09:00:51.083Z,17.66
2023-04-11T09:03:18.585Z,17.67
2023-04-11T09:05:47.073Z,17.57
2023-04-11T09:08:16.748Z,17.64
2023-04-11T09:10:46.173Z,18.01
2023-04-11T09:13:23.909Z,17.90
2023-04-11T09:16:12.976Z,18.59
2023-04-11T09:18:42.624Z,18.96
2023-04-11T09:21:15.254Z,19.89
2023-04-11T09:23:43.153Z,19.83
2023-04-11T09:26:12.781Z,20.27
2023-04-11T09:28:54.398Z,21.41
2023-04-11T09:31:38.258Z,22.14
2023-04-11T09:34:05.518Z,22.75
2023-04-11T09:36:32.711Z,23.43
2023-04-11T09:39:00.076Z,24.39
2023-04-11T09:41:38.644Z,24.02
2023-04-11T09:44:05.914Z,24.42
2023-04-11T09:46:33.187Z,24.16
2023-04-11T09:49:03.797Z,24.10
2023-04-11T09:51:35.900Z,23.83
2023-04-11T09:54:05.406Z,24.81
2023-04-11T09:56:36.580Z,24.79
2023-04-11T09:59:05.323Z,24.42
2023-04-11T10:01:33.365Z,23.16
2023-04-11T10:04:01.500Z,21.88
2023-04-11T10:07:10.663Z,22.30
2023-04-11T10:09:43.627Z,22.45
2023-04-11T10:12:11.171Z,22.84
2023-04-11T10:14:38.421Z,23.53
2023-04-11T10:17:23.474Z,22.70
2023-04-11T10:19:56.942Z,23.22
2023-04-11T10:22:46.497Z,22.84
2023-04-11T10:25:22.119Z,21.90
2023-04-11T10:28:01.392Z,22.41
2023-04-11T10:30:40.973Z,21.85
2023-04-11T10:33:20.792Z,22.25
2023-04-11T10:36:02.298Z,23.48
2023-04-11T10:38:41.996Z,23.72
2023-04-11T10:41:33.524Z,23.41
2023-04-11T10:44:24.895Z,21.91
2023-04-11T10:46:54.834Z,20.93
2023-04-11T10:49:40.506Z,21.46
2023-04-11T10:52:22.934Z,21.50
2023-04-11T10:54:52.769Z,21.09
2023-04-11T10:57:21.729Z,20.26
2023-04-11T10:59:51.641Z,20.42
2023-04-11T11:02:19.874Z,21.17
2023-04-11T11:04:48.890Z,20.56
2023-04-11T11:07:17.482Z,20.01
2023-04-11T11:09:51.410Z,20.43
2023-04-11T11:12:19.041Z,20.17
2023-04-11T11:14:47.288Z,20.61
2023-04-11T11:17:17.116Z,20.37
2023-04-11T11:19:48.204Z,18.87
2023-04-11T11:22:26.584Z,19.49
2023-04-11T11:24:53.878Z,20.17
2023-04-11T11:27:23.324Z,20.57
2023-04-11T11:29:51.651Z,20.52
2023-04-11T11:32:28.499Z,20.47
2023-04-11T11:34:57.713Z,21.17
2023-04-11T11:37:25.342Z,21.42
2023-04-11T11:39:53.173Z,22.65
2023-04-11T11:42:20.550Z,22.27
2023-04-11T11:44:47.808Z,22.95
2023-04-11T11:47:18.348Z,23.34
2023-04-11T11:49:54.417Z,22.67
2023-04-11T11:52:40.548Z,22.55
2023-04-11T11:55:29.935Z,21.65
2023-04-11T11:58:02.384Z,20.43
2023-04-11T12:00:34.903Z,20.15
2023-04-11T12:03:03.558Z,19.77
2023-04-11T12:05:35.097Z,18.43
2023-04-11T12:08:07.489Z,18.97
2023-04-11T12:10:45.541Z,19.13
2023-04-11T12:13:19.782Z,18.20
2023-04-11T12:15:54.323Z,18.63
2023-04-11T12:18:24.106Z,18.37
2023-04-11T12:20:52.374Z,17.96
2023-04-11T12:23:20.142Z,17.90
2023-04-11T12:25:47.633Z,17.54
2023-04-11T12:28:15.074Z,17.61
2023-04-11T12:30:42.281Z,17.53
2023-04-11T12:33:09.628Z,17.65
2023-04-11T12:35:37.029Z,17.48
2023-04-11T12:38:04.432Z,17.56
2023-04-11T12:40:31.961Z,16.79
2023-04-11T12:42:59.570Z,17.00
2023-04-11T12:45:27.289Z,16.54
2023-04-11T12:47:54.733Z,16.70
2023-04-11T12:50:23.693Z,16.32
2023-04-11T12:52:51.750Z,16.62
2023-04-11T12:55:19.151Z,16.72
2023-04-11T12:57:46.435Z,16.60
2023-04-11T13:00:14.892Z,16.34
2023-04-11T13:02:44.980Z,16.39
2023-04-11T13:05:15.562Z,16.10
2023-04-11T13:07:44.957Z,16.29
2023-04-11T13:10:14.005Z,15.04
2023-04-11T13:12:44.689Z,14.73
2023-04-11T13:15:15.359Z,14.94
2023-04-11T13:17:43.388Z,14.97
2023-04-11T13:20:11.664Z,14.92
2023-04-11T13:22:42.977Z,14.67
2023-04-11T13:25:12.431Z,14.39
2023-04-11T13:27:41.086Z,14.20
2023-04-11T13:30:10.655Z,13.85
2023-04-11T13:32:38.131Z,13.61
2023-04-11T13:35:06.262Z,13.37
2023-04-11T13:37:33.496Z,13.50
2023-04-11T13:40:01.046Z,13.24
2023-04-11T13:42:28.413Z,13.18
2023-04-11T13:44:55.643Z,13.11
2023-04-11T13:47:23.024Z,13.26
2023-04-11T13:49:50.311Z,13.08
2023-04-11T13:52:17.568Z,13.31
2023-04-11T13:54:44.726Z,12.94
2023-04-11T13:57:11.968Z,13.10
2023-04-11T13:59:39.181Z,12.97
2023-04-11T14:02:07.200Z,12.83
2023-04-11T14:04:34.559Z,12.52
2023-04-11T14:07:01.901Z,12.29
2023-04-11T14:09:29.281Z,12.14
2023-04-11T14:11:57.002Z,11.99
2023-04-11T14:14:24.343Z,12.48
2023-04-11T14:16:51.803Z,12.75
2023-04-11T14:19:19.164Z,12.32
2023-04-11T14:21:46.624Z,12.07
2023-04-11T14:24:13.942Z,11.99
2023-04-11T14:26:41.407Z,11.70
2023-04-11T14:29:08.732Z,11.57
2023-04-11T14:31:36.547Z,11.42
2023-04-11T14:34:03.962Z,11.64
2023-04-11T14:36:32.083Z,11.41
2023-04-11T14:38:59.534Z,11.93
2023-04-11T14:41:26.792Z,11.77
2023-04-11T14:43:54.129Z,11.61
2023-04-11T14:46:21.554Z,11.39
2023-04-11T14:48:48.939Z,11.36
2023-04-11T14:51:16.229Z,11.20
2023-04-11T14:53:43.413Z,11.18
2023-04-11T14:56:10.688Z,11.02
2023-04-11T14:58:37.899Z,10.82
2023-04-11T15:01:05.386Z,10.59
2023-04-11T15:03:33.073Z,10.37
2023-04-11T15:06:00.531Z,10.51
2023-04-11T15:08:27.767Z,10.20
2023-04-11T15:10:55.101Z,10.45
2023-04-11T15:13:23.082Z,10.22
2023-04-11T15:15:51.448Z,10.30
2023-04-11T15:18:22.137Z,10.30
2023-04-11T15:20:49.747Z,10.16
2023-04-11T15:23:19.048Z,10.27
2023-04-11T15:26:03.488Z,10.05
2023-04-11T15:28:39.308Z,10.10
2023-04-11T15:31:13.042Z,10.07
2023-04-11T15:33:40.901Z,10.12
2023-04-11T15:36:08.816Z,10.15
2023-04-11T15:38:36.987Z,10.04
2023-04-11T15:41:04.548Z,10.19
2023-04-11T15:43:32.493Z,10.39
2023-04-11T15:46:03.453Z,10.52
2023-04-11T15:48:31.131Z,10.71
2023-04-11T15:50:58.665Z,10.55
2023-04-11T15:53:26.602Z,10.79
2023-04-11T15:55:54.244Z,10.76
2023-04-11T15:58:21.648Z,10.51
2023-04-11T16:00:48.941Z,10.58
2023-04-11T16:03:16.776Z,10.74
2023-04-11T16:05:45.091Z,10.46
2023-04-11T16:08:12.343Z,10.09
2023-04-11T16:10:39.636Z,10.08
2023-04-11T16:13:07.078Z,10.33
2023-04-11T16:15:34.347Z,10.50
2023-04-11T16:18:01.735Z,10.56
2023-04-11T16:20:28.997Z,10.28
2023-04-11T16:22:56.421Z,10.32
2023-04-11T16:25:23.904Z,10.40
2023-04-11T16:27:51.594Z,10.60
2023-04-11T16:30:19.317Z,10.65
2023-04-11T16:32:46.896Z,10.58
2023-04-11T16:35:14.130Z,10.51
2023-04-11T16:37:41.725Z,10.35
2023-04-11T16:40:11.728Z,10.20
2023-04-11T16:42:40.499Z,10.08
2023-04-11T16:45:09.858Z,10.25
2023-04-11T16:47:37.378Z,10.06
2023-04-11T16:50:05.924Z,9.97
2023-04-11T16:52:33.890Z,9.95
2023-04-11T16:55:01.783Z,9.95
2023-04-11T16:57:29.147Z,9.98
2023-04-11T16:59:56.370Z,9.94
2023-04-11T17:02:24.158Z,9.79
2023-04-11T17:04:51.645Z,9.59
2023-04-11T17:07:18.991Z,9.56
2023-04-11T17:09:50.014Z,9.68
2023-04-11T17:12:17.635Z,9.66
2023-04-11T17:14:45.879Z,9.67
2023-04-11T17:17:13.287Z,9.68
2023-04-11T17:19:40.762Z,9.84
2023-04-11T17:22:08.223Z,9.67
2023-04-11T17:24:36.262Z,9.73
2023-04-11T17:27:04.073Z,9.68
2023-04-11T17:29:31.278Z,9.20
2023-04-11T17:31:58.927Z,9.25
2023-04-11T17:34:26.618Z,9.24
2023-04-11T17:36:56.888Z,9.63
2023-04-11T17:39:24.367Z,9.44
2023-04-11T17:41:51.695Z,9.46
2023-04-11T17:44:19.324Z,9.46
2023-04-11T17:46:46.824Z,9.29
2023-04-11T17:49:14.970Z,9.54
2023-04-11T17:51:48.885Z,9.59
2023-04-11T17:54:20.014Z,9.39
2023-04-11T17:56:47.426Z,9.26
2023-04-11T17:59:17.202Z,9.30
2023-04-11T18:01:46.619Z,9.52
2023-04-11T18:04:14.917Z,9.31
2023-04-11T18:06:46.229Z,9.28
2023-04-11T18:09:15.948Z,9.23
2023-04-11T18:11:44.188Z,9.29
2023-04-11T18:14:11.577Z,9.04
2023-04-11T18:16:40.105Z,9.26
2023-04-11T18:19:07.427Z,9.38
2023-04-11T18:21:35.037Z,9.10
2023-04-11T18:24:02.503Z,8.77
2023-04-11T18:26:31.462Z,8.84
2023-04-11T18:29:00.431Z,9.11
2023-04-11T18:31:28.261Z,9.29
2023-04-11T18:33:55.760Z,8.73
2023-04-11T18:38:52.255Z,8.92
2023-04-11T18:41:20.287Z,9.10
2023-04-11T18:43:47.821Z,8.95
2023-04-11T18:46:15.164Z,9.02
2023-04-11T18:48:42.575Z,9.10
2023-04-11T18:51:09.926Z,8.91
2023-04-11T18:53:37.385Z,8.87
2023-04-11T18:56:05.038Z,9.05
2023-04-11T18:58:34.228Z,8.60
2023-04-11T19:01:14.610Z,8.54
2023-04-11T19:03:44.601Z,8.91
2023-04-11T19:06:13.010Z,9.11
2023-04-11T19:08:40.906Z,9.23
2023-04-11T19:11:08.213Z,9.06
2023-04-11T19:13:35.833Z,9.02
2023-04-11T19:16:03.396Z,9.11
2023-04-11T19:18:32.061Z,9.25
2023-04-11T19:21:01.088Z,9.29
2023-04-11T19:23:29.513Z,9.37
2023-04-11T19:26:01.166Z,9.54
2023-04-11T19:28:30.284Z,9.15
2023-04-11T19:30:58.231Z,9.09
2023-04-11T19:33:26.306Z,9.15
2023-04-11T19:35:54.369Z,9.07
2023-04-11T19:38:21.884Z,9.06
2023-04-11T19:40:49.286Z,8.94
2023-04-11T19:43:16.679Z,8.83
2023-04-11T19:45:44.255Z,8.45
2023-04-11T19:48:12.278Z,8.45
2023-04-11T19:50:39.756Z,8.75
2023-04-11T19:53:07.262Z,8.72
2023-04-11T19:55:34.920Z,8.83
2023-04-11T19:58:02.905Z,8.51
2023-04-11T20:00:34.731Z,8.38
2023-04-11T20:03:02.780Z,8.25
2023-04-11T20:05:32.154Z,8.27
2023-04-11T20:07:59.590Z,8.31
2023-04-11T20:10:28.604Z,8.24
2023-04-11T20:12:56.155Z,8.26
2023-04-11T20:15:23.757Z,8.53
2023-04-11T20:17:51.234Z,8.42
2023-04-11T20:20:20.384Z,8.37
2023-04-11T20:22:48.519Z,8.42
2023-04-11T20:25:15.915Z,8.27
2023-04-11T20:27:43.936Z,8.31
2023-04-11T20:30:12.375Z,8.40
2023-04-11T20:32:41.395Z,8.54
2023-04-11T20:35:09.987Z,8.65
2023-04-11T20:37:39.996Z,8.47
2023-04-11T20:40:10.129Z,8.41
2023-04-11T20:42:42.564Z,8.31
2023-04-11T20:45:13.626Z,8.57
2023-04-11T20:47:44.989Z,8.66
2023-04-11T20:50:14.653Z,8.32
2023-04-11T20:52:47.502Z,8.38
2023-04-11T20:55:15.772Z,8.44
2023-04-11T20:57:45.069Z,8.42
2023-04-11T21:00:16.611Z,8.40
2023-04-11T21:02:47.410Z,8.09
2023-04-11T21:05:20.104Z,7.90
2023-04-11T21:07:47.557Z,8.05
2023-04-11T21:10:15.756Z,8.21
2023-04-11T21:12:43.327Z,8.32
2023-04-11T21:15:11.907Z,8.18
2023-04-11T21:17:39.706Z,8.28
2023-04-11T21:20:10.458Z,8.28
2023-04-11T21:22:37.796Z,8.07
2023-04-11T21:25:05.802Z,8.12
2023-04-11T21:27:33.086Z,7.97
2023-04-11T21:30:00.407Z,7.97
2023-04-11T21:32:28.201Z,8.18
2023-04-11T21:34:55.523Z,7.90
2023-04-11T21:37:22.970Z,7.85
2023-04-11T21:39:50.402Z,8.19
2023-04-11T21:42:17.551Z,8.18
2023-04-11T21:44:45.085Z,8.08
2023-04-11T21:47:12.645Z,7.80
2023-04-11T21:49:39.896Z,7.93
2023-04-11T21:52:07.562Z,7.85
2023-04-11T21:54:34.935Z,7.85
2023-04-11T21:57:02.180Z,7.90
2023-04-11T21:59:29.794Z,7.77
2023-04-11T22:01:57.528Z,7.66
2023-04-11T22:04:25.187Z,7.82
2023-04-11T22:06:54.264Z,7.73
2023-04-11T22:09:23.216Z,7.79
2023-04-11T22:11:51.344Z,7.73
2023-04-11T22:14:18.785Z,7.69
2023-04-11T22:16:49.342Z,7.71
2023-04-11T22:19:18.452Z,7.71
2023-04-11T22:21:50.682Z,7.50
2023-04-11T22:24:17.920Z,7.57
2023-04-11T22:26:46.588Z,7.69
2023-04-11T22:29:16.007Z,7.16
2023-04-11T22:31:43.293Z,7.41
2023-04-11T22:34:10.566Z,7.49
2023-04-11T22:36:37.919Z,7.05
2023-04-11T22:39:09.507Z,7.22
2023-04-11T22:41:38.684Z,7.06
2023-04-11T22:44:07.032Z,7.49
2023-04-11T22:46:39.351Z,7.20
2023-04-11T22:49:09.848Z,7.28
2023-04-11T22:51:38.158Z,7.24
2023-04-11T22:54:05.894Z,7.46
2023-04-11T22:56:33.110Z,7.31
2023-04-11T22:59:00.338Z,7.13
2023-04-11T23:01:28.286Z,7.06
2023-04-11T23:03:55.987Z,7.21
2023-04-11T23:06:23.581Z,6.95
2023-04-11T23:08:54.002Z,7.02
2023-04-11T23:11:21.693Z,6.96
2023-04-11T23:13:48.876Z,6.93
2023-04-11T23:16:16.148Z,6.88
2023-04-11T23:18:43.357Z,7.20
2023-04-11T23:21:14.448Z,7.02
2023-04-11T23:23:41.856Z,7.27
2023-04-11T23:26:09.318Z,7.51
2023-04-11T23:28:36.537Z,7.07
2023-04-11T23:31:04.111Z,6.96
2023-04-11T23:33:31.479Z,7.21
2023-04-11T23:35:58.713Z,7.45
2023-04-11T23:38:26.274Z,7.20
2023-04-11T23:40:53.619Z,7.32
2023-04-11T23:43:21.117Z,7.02
2023-04-11T23:45:48.462Z,7.10
2023-04-11T23:48:15.716Z,7.16
2023-04-11T23:50:43.020Z,7.17
2023-04-11T23:53:10.386Z,7.34
2023-04-11T23:55:38.279Z,7.32
2023-04-11T23:58:05.515Z,7.27
